createdAt,value
2019-03-15T00:01:42.442Z,4.72
2019-03-15T00:04:12.897Z,2.27
2019-03-15T00:06:43.286Z,2.00
2019-03-15T00:09:13.671Z,2.47
2019-03-15T00:11:44.037Z,6.05
2019-03-15T00:14:14.551Z,8.40
2019-03-15T00:16:45.217Z,5.72
2019-03-15T00:19:15.621Z,4.30
2019-03-15T00:21:46.001Z,9.08
2019-03-15T00:24:16.350Z,5.97
2019-03-15T00:26:46.730Z,10.82
2019-03-15T00:29:17.077Z,3.12
2019-03-15T00:31:47.469Z,4.87
2019-03-15T00:34:17.809Z,3.37
2019-03-15T00:36:48.180Z,4.45
2019-03-15T00:39:18.540Z,5.78
2019-03-15T00:41:48.938Z,2.98
2019-03-15T00:44:19.441Z,10.10
2019-03-15T00:46:49.826Z,4.80
2019-03-15T00:49:20.154Z,6.45
2019-03-15T00:51:50.550Z,5.90
2019-03-15T00:54:20.891Z,2.95
2019-03-15T00:56:51.291Z,3.08
2019-03-15T00:59:21.661Z,5.30
2019-03-15T01:01:52.013Z,2.37
2019-03-15T01:04:22.409Z,6.40
2019-03-15T01:06:52.776Z,3.50
2019-03-15T01:09:23.122Z,1.82
2019-03-15T01:11:53.521Z,2.75
2019-03-15T01:14:23.996Z,2.45
2019-03-15T01:16:54.430Z,3.80
2019-03-15T01:19:24.841Z,4.62
2019-03-15T01:21:55.190Z,4.45
2019-03-15T01:24:25.585Z,4.92
2019-03-15T01:26:55.925Z,4.35
2019-03-15T01:29:26.310Z,4.95
2019-03-15T01:31:56.674Z,5.50
2019-03-15T01:34:27.045Z,8.20
2019-03-15T01:36:57.445Z,5.72
2019-03-15T01:39:27.810Z,9.48
2019-03-15T01:41:58.149Z,2.60
2019-03-15T01:44:28.544Z,5.20
2019-03-15T01:46:59.299Z,3.87
2019-03-15T01:49:29.863Z,5.30
2019-03-15T01:52:00.265Z,3.75
2019-03-15T01:54:30.622Z,4.25
2019-03-15T01:57:00.989Z,2.70
2019-03-15T01:59:31.341Z,2.67
2019-03-15T02:02:01.723Z,1.82
2019-03-15T02:04:32.162Z,6.28
2019-03-15T02:07:02.668Z,3.40
2019-03-15T02:09:33.076Z,4.22
2019-03-15T02:12:03.474Z,4.80
2019-03-15T02:14:33.910Z,5.12
2019-03-15T02:17:04.285Z,3.10
2019-03-15T02:19:35.426Z,3.15
2019-03-15T02:22:05.894Z,2.60
2019-03-15T02:24:36.277Z,3.80
2019-03-15T02:27:06.669Z,5.20
2019-03-15T02:29:37.067Z,2.55
2019-03-15T02:32:07.444Z,4.75
2019-03-15T02:34:37.845Z,5.20
2019-03-15T02:37:08.289Z,8.78
2019-03-15T02:39:39.884Z,5.20
2019-03-15T02:42:10.237Z,2.95
2019-03-15T02:44:40.643Z,4.03
2019-03-15T02:47:11.021Z,2.30
2019-03-15T02:49:41.393Z,7.53
2019-03-15T02:52:11.754Z,4.25
2019-03-15T02:54:42.101Z,3.77
2019-03-15T02:57:12.538Z,4.22
2019-03-15T02:59:42.887Z,5.92
2019-03-15T03:02:13.258Z,6.83
2019-03-15T03:04:43.672Z,4.45
2019-03-15T03:07:14.245Z,2.75
2019-03-15T03:09:44.639Z,4.00
2019-03-15T03:12:15.033Z,5.72
2019-03-15T03:14:45.448Z,3.70
2019-03-15T03:17:15.897Z,6.80
2019-03-15T03:19:46.286Z,8.38
2019-03-15T03:22:16.754Z,3.22
2019-03-15T03:24:47.260Z,5.83
2019-03-15T03:27:17.721Z,5.97
2019-03-15T03:29:48.069Z,2.47
2019-03-15T03:32:18.435Z,3.17
2019-03-15T03:34:49.520Z,3.30
2019-03-15T03:37:19.997Z,7.75
2019-03-15T03:39:50.335Z,2.98
2019-03-15T03:42:20.761Z,4.72
2019-03-15T03:44:51.226Z,3.15
2019-03-15T03:47:21.650Z,6.97
2019-03-15T03:49:51.987Z,6.95
2019-03-15T03:52:22.439Z,4.78
2019-03-15T03:54:52.892Z,6.70
2019-03-15T03:57:23.436Z,2.60
2019-03-15T03:59:53.808Z,6.87
2019-03-15T04:02:24.337Z,3.70
2019-03-15T04:04:54.785Z,6.80
2019-03-15T04:07:25.174Z,4.47
2019-03-15T04:09:55.578Z,5.15
2019-03-15T04:12:25.926Z,8.78
2019-03-15T04:14:56.326Z,6.87
2019-03-15T04:17:26.695Z,3.77
2019-03-15T04:19:57.082Z,7.58
2019-03-15T04:22:27.446Z,3.47
2019-03-15T04:24:57.901Z,4.17
2019-03-15T04:27:28.250Z,5.10
2019-03-15T04:29:58.624Z,10.72
2019-03-15T04:32:28.978Z,8.85
2019-03-15T04:34:59.354Z,6.50
2019-03-15T04:37:29.705Z,5.55
2019-03-15T04:40:00.081Z,6.42
2019-03-15T04:42:30.991Z,5.60
2019-03-15T04:45:01.383Z,3.55
2019-03-15T04:47:31.888Z,6.50
2019-03-15T04:50:02.277Z,7.08
2019-03-15T04:52:32.635Z,6.65
2019-03-15T04:55:03.048Z,3.52
2019-03-15T04:57:33.444Z,10.30
2019-03-15T05:00:03.962Z,8.80
2019-03-15T05:02:34.405Z,6.72
2019-03-15T05:05:05.373Z,9.38
2019-03-15T05:07:35.782Z,4.75
2019-03-15T05:10:06.277Z,6.50
2019-03-15T05:12:36.643Z,5.87
2019-03-15T05:15:07.551Z,11.68
2019-03-15T05:17:37.909Z,6.42
2019-03-15T05:20:08.476Z,7.55
2019-03-15T05:22:38.889Z,9.95
2019-03-15T05:25:09.515Z,5.50
2019-03-15T05:27:39.889Z,4.53
2019-03-15T05:30:10.588Z,5.10
2019-03-15T05:32:40.948Z,7.15
2019-03-15T05:35:11.454Z,6.40
2019-03-15T05:37:41.905Z,6.55
2019-03-15T05:40:12.301Z,3.35
2019-03-15T05:42:43.761Z,4.55
2019-03-15T05:45:14.187Z,3.45
2019-03-15T05:47:44.561Z,3.40
2019-03-15T05:50:14.937Z,6.42
2019-03-15T05:52:45.331Z,3.12
2019-03-15T05:55:15.694Z,4.80
2019-03-15T05:57:46.066Z,3.45
2019-03-15T06:00:16.426Z,6.60
2019-03-15T06:02:46.805Z,2.65
2019-03-15T06:05:17.150Z,3.87
2019-03-15T06:07:47.547Z,8.23
2019-03-15T06:10:17.908Z,5.08
2019-03-15T06:12:48.409Z,4.25
2019-03-15T06:15:18.780Z,5.45
2019-03-15T06:17:50.413Z,2.60
2019-03-15T06:20:20.758Z,2.70
2019-03-15T06:23:11.486Z,3.05
2019-03-15T06:25:41.949Z,4.20
2019-03-15T06:28:12.433Z,1.45
2019-03-15T06:30:42.822Z,2.75
2019-03-15T06:33:13.271Z,1.98
2019-03-15T06:35:43.757Z,2.30
2019-03-15T06:38:14.154Z,3.40
2019-03-15T06:40:45.602Z,1.25
2019-03-15T06:43:16.014Z,1.25
2019-03-15T06:45:46.433Z,1.80
2019-03-15T06:48:16.787Z,1.55
2019-03-15T06:50:47.206Z,3.10
2019-03-15T06:53:17.622Z,1.55
2019-03-15T06:55:47.973Z,1.15
2019-03-15T06:58:18.372Z,1.02
2019-03-15T07:00:48.746Z,1.20
2019-03-15T07:03:19.099Z,3.42
2019-03-15T07:05:49.464Z,1.22
2019-03-15T07:08:19.815Z,3.08
2019-03-15T07:10:50.212Z,1.62
2019-03-15T07:13:20.591Z,0.80
2019-03-15T07:15:51.043Z,2.25
2019-03-15T07:18:21.409Z,0.60
2019-03-15T07:20:51.793Z,0.98
2019-03-15T07:23:22.146Z,1.85
2019-03-15T07:25:52.594Z,0.70
2019-03-15T07:28:23.020Z,1.02
2019-03-15T07:30:53.378Z,0.98
2019-03-15T07:33:23.728Z,0.88
2019-03-15T07:35:54.175Z,2.45
2019-03-15T07:38:24.529Z,2.10
2019-03-15T07:40:54.912Z,1.20
2019-03-15T07:43:25.386Z,1.05
2019-03-15T07:45:55.761Z,2.70
2019-03-15T07:48:27.010Z,1.10
2019-03-15T07:50:57.573Z,1.55
2019-03-15T07:53:27.915Z,1.85
2019-03-15T07:55:58.330Z,1.42
2019-03-15T07:58:28.724Z,0.90
2019-03-15T08:00:59.094Z,1.47
2019-03-15T08:03:29.454Z,2.85
2019-03-15T08:05:59.896Z,0.80
2019-03-15T08:08:30.352Z,1.00
2019-03-15T08:11:00.827Z,3.00
2019-03-15T08:13:31.206Z,1.82
2019-03-15T08:16:01.589Z,1.70
2019-03-15T08:18:31.976Z,1.32
2019-03-15T08:21:02.345Z,1.42
2019-03-15T08:23:32.733Z,2.47
2019-03-15T08:26:03.142Z,4.85
2019-03-15T08:28:33.544Z,4.08
2019-03-15T08:31:03.881Z,1.62
2019-03-15T08:33:34.274Z,1.65
2019-03-15T08:36:07.405Z,3.70
2019-03-15T08:38:47.600Z,4.33
2019-03-15T08:41:09.839Z,3.30
2019-03-15T08:43:40.234Z,3.67
2019-03-15T08:46:10.618Z,2.02
2019-03-15T08:48:41.011Z,1.85
2019-03-15T08:51:11.390Z,1.70
2019-03-15T08:53:41.854Z,2.35
2019-03-15T08:56:14.546Z,3.77
2019-03-15T08:58:44.366Z,2.87
2019-03-15T09:01:14.732Z,4.20
2019-03-15T09:03:45.392Z,4.00
2019-03-15T09:06:15.804Z,3.35
2019-03-15T09:08:46.297Z,2.00
2019-03-15T09:11:16.674Z,3.75
2019-03-15T09:13:49.279Z,1.70
2019-03-15T09:16:20.014Z,4.80
2019-03-15T09:18:50.395Z,3.02
2019-03-15T09:21:20.862Z,4.10
2019-03-15T09:23:51.221Z,2.45
2019-03-15T09:26:21.658Z,1.62
2019-03-15T09:28:52.018Z,4.30
2019-03-15T09:31:22.390Z,2.85
2019-03-15T09:33:52.774Z,1.60
2019-03-15T09:36:23.254Z,2.45
2019-03-15T09:38:53.597Z,1.60
2019-03-15T09:41:32.010Z,1.02
2019-03-15T09:43:56.078Z,3.98
2019-03-15T09:46:26.603Z,1.02
2019-03-15T09:48:59.696Z,1.05
2019-03-15T09:51:29.079Z,1.95
2019-03-15T09:53:59.750Z,0.80
2019-03-15T09:56:30.124Z,2.27
2019-03-15T09:59:00.488Z,0.80
2019-03-15T10:01:35.141Z,1.50
2019-03-15T10:04:02.986Z,1.35
2019-03-15T10:06:33.366Z,1.20
2019-03-15T10:09:05.250Z,1.52
2019-03-15T10:11:35.644Z,3.42
2019-03-15T10:14:05.997Z,0.82
2019-03-15T10:16:36.377Z,1.30
2019-03-15T10:19:06.725Z,1.10
2019-03-15T10:21:37.148Z,1.17
2019-03-15T10:24:07.540Z,0.90
2019-03-15T10:26:37.968Z,0.93
2019-03-15T10:29:15.477Z,1.67
2019-03-15T10:31:40.438Z,1.20
2019-03-15T10:34:10.821Z,4.30
2019-03-15T10:36:41.199Z,1.00
2019-03-15T10:39:11.589Z,2.37
2019-03-15T10:41:41.986Z,0.88
2019-03-15T10:44:12.390Z,0.70
2019-03-15T10:46:42.767Z,1.52
2019-03-15T10:49:13.158Z,1.47
2019-03-15T10:51:43.549Z,1.30
2019-03-15T10:54:13.921Z,0.60
2019-03-15T10:56:44.310Z,0.70
2019-03-15T10:59:14.724Z,2.37
2019-03-15T11:01:45.090Z,0.80
2019-03-15T11:04:15.502Z,0.72
2019-03-15T11:06:45.849Z,1.12
2019-03-15T11:09:16.233Z,0.40
2019-03-15T11:11:46.594Z,0.50
2019-03-15T11:14:17.072Z,0.50
2019-03-15T11:16:47.446Z,0.70
2019-03-15T11:19:17.869Z,0.40
2019-03-15T11:21:48.358Z,0.50
2019-03-15T11:24:18.737Z,1.47
2019-03-15T11:26:49.119Z,0.50
2019-03-15T11:29:19.689Z,0.50
2019-03-15T11:31:50.075Z,1.80
2019-03-15T11:34:20.509Z,0.70
2019-03-15T11:36:58.399Z,0.40
2019-03-15T11:39:22.989Z,0.50
2019-03-15T11:41:53.443Z,0.50
2019-03-15T11:44:23.855Z,0.60
2019-03-15T11:46:54.253Z,1.65
2019-03-15T11:49:27.888Z,0.40
2019-03-15T11:51:56.758Z,0.40
2019-03-15T11:54:27.141Z,0.50
2019-03-15T11:56:57.550Z,0.30
2019-03-15T11:59:27.911Z,0.40
2019-03-15T12:02:03.934Z,0.50
2019-03-15T12:04:30.319Z,0.50
2019-03-15T12:07:00.777Z,0.45
2019-03-15T12:09:31.142Z,0.50
2019-03-15T12:12:01.553Z,0.50
2019-03-15T12:14:40.800Z,0.53
2019-03-15T12:17:04.010Z,0.60
2019-03-15T12:19:34.437Z,2.55
2019-03-15T12:22:06.602Z,2.33
2019-03-15T12:24:37.009Z,0.57
2019-03-15T12:27:07.414Z,0.60
2019-03-15T12:29:37.754Z,0.50
2019-03-15T12:32:08.162Z,2.15
2019-03-15T12:34:38.498Z,0.60
2019-03-15T12:37:08.899Z,0.50
2019-03-15T12:39:39.311Z,0.40
2019-03-15T12:42:09.725Z,0.85
2019-03-15T12:44:40.083Z,0.40
2019-03-15T12:47:10.470Z,0.40
2019-03-15T12:49:40.821Z,0.53
2019-03-15T12:52:11.239Z,1.05
2019-03-15T12:54:41.642Z,0.40
2019-03-15T12:57:12.069Z,0.50
2019-03-15T12:59:42.454Z,0.62
2019-03-15T13:02:12.831Z,0.40
2019-03-15T13:04:43.227Z,0.40
2019-03-15T13:07:13.592Z,0.93
2019-03-15T13:09:43.994Z,0.40
2019-03-15T13:12:14.407Z,0.40
2019-03-15T13:14:44.836Z,0.45
2019-03-15T13:17:15.191Z,0.40
2019-03-15T13:19:54.999Z,0.57
2019-03-15T13:22:17.770Z,0.35
2019-03-15T13:24:48.181Z,0.40
2019-03-15T13:27:23.890Z,0.77
2019-03-15T13:29:54.333Z,2.10
2019-03-15T13:32:24.702Z,0.60
2019-03-15T13:34:55.099Z,0.65
2019-03-15T13:37:25.487Z,2.10
2019-03-15T13:39:55.891Z,0.50
2019-03-15T13:42:26.271Z,0.45
2019-03-15T13:44:56.672Z,0.40
2019-03-15T13:47:27.042Z,0.40
2019-03-15T13:49:57.445Z,0.40
2019-03-15T13:52:27.819Z,1.30
2019-03-15T13:54:58.238Z,1.87
2019-03-15T13:57:28.589Z,1.40
2019-03-15T13:59:58.973Z,1.57
2019-03-15T14:02:29.341Z,0.40
2019-03-15T14:04:59.740Z,0.40
2019-03-15T14:07:30.178Z,0.50
2019-03-15T14:10:00.579Z,1.67
2019-03-15T14:12:30.952Z,0.40
2019-03-15T14:15:01.370Z,0.88
2019-03-15T14:17:31.733Z,0.60
2019-03-15T14:20:02.163Z,0.40
2019-03-15T14:22:32.526Z,1.00
2019-03-15T14:25:02.909Z,1.27
2019-03-15T14:27:37.722Z,11.40
2019-03-15T14:30:05.692Z,0.50
2019-03-15T14:32:36.050Z,0.40
2019-03-15T14:35:06.676Z,0.47
2019-03-15T14:37:37.242Z,0.40
2019-03-15T14:40:07.786Z,0.40
2019-03-15T14:42:38.358Z,0.40
2019-03-15T14:45:09.457Z,0.47
2019-03-15T14:47:39.900Z,0.40
2019-03-15T14:50:10.336Z,0.50
2019-03-15T14:52:40.722Z,0.53
2019-03-15T14:55:11.393Z,0.37
2019-03-15T14:57:51.939Z,0.40
2019-03-15T15:00:14.001Z,0.90
2019-03-15T15:02:44.426Z,0.40
2019-03-15T15:05:14.800Z,0.37
2019-03-15T15:07:45.182Z,0.57
2019-03-15T15:10:15.557Z,0.97
2019-03-15T15:12:45.964Z,0.50
2019-03-15T15:15:16.351Z,1.13
2019-03-15T15:17:46.836Z,0.50
2019-03-15T15:20:17.241Z,0.40
2019-03-15T15:22:47.727Z,0.68
2019-03-15T15:25:18.165Z,0.40
2019-03-15T15:27:48.562Z,0.50
2019-03-15T15:30:19.047Z,0.40
2019-03-15T15:32:49.429Z,0.55
2019-03-15T15:35:19.781Z,0.40
2019-03-15T15:37:50.168Z,0.50
2019-03-15T15:40:20.601Z,0.40
2019-03-15T15:42:51.062Z,0.45
2019-03-15T15:45:21.551Z,0.40
2019-03-15T15:47:51.929Z,3.57
2019-03-15T15:50:22.276Z,1.10
2019-03-15T15:52:52.673Z,0.40
2019-03-15T15:55:23.049Z,0.50
2019-03-15T15:57:53.459Z,0.60
2019-03-15T16:00:23.813Z,0.40
2019-03-15T16:02:54.218Z,0.40
2019-03-15T16:05:24.628Z,0.40
2019-03-15T16:07:56.631Z,0.40
2019-03-15T16:10:27.058Z,0.40
2019-03-15T16:12:57.485Z,0.40
2019-03-15T16:15:27.879Z,0.50
2019-03-15T16:17:58.273Z,1.23
2019-03-15T16:20:28.717Z,0.50
2019-03-15T16:22:59.110Z,0.40
2019-03-15T16:25:29.495Z,0.90
2019-03-15T16:27:59.917Z,1.50
2019-03-15T16:30:30.329Z,0.50
2019-03-15T16:33:00.713Z,0.40
2019-03-15T16:35:31.109Z,0.40
2019-03-15T16:38:01.509Z,0.40
2019-03-15T16:40:31.925Z,0.40
2019-03-15T16:43:02.502Z,0.50
2019-03-15T16:45:35.407Z,0.53
2019-03-15T16:48:05.803Z,0.30
2019-03-15T16:50:36.216Z,0.53
2019-03-15T16:53:06.589Z,0.53
2019-03-15T16:55:37.038Z,0.40
2019-03-15T16:58:07.462Z,0.40
2019-03-15T17:00:37.867Z,0.40
2019-03-15T17:03:08.209Z,0.30
2019-03-15T17:05:38.601Z,0.70
2019-03-15T17:08:08.962Z,0.47
2019-03-15T17:10:39.371Z,0.50
2019-03-15T17:13:09.723Z,0.40
2019-03-15T17:15:40.137Z,0.40
2019-03-15T17:18:10.572Z,0.53
2019-03-15T17:20:40.979Z,0.40
2019-03-15T17:23:11.373Z,0.50
2019-03-15T17:25:41.753Z,0.40
2019-03-15T17:28:12.159Z,0.60
2019-03-15T17:30:42.583Z,0.97
2019-03-15T17:33:12.978Z,0.40
2019-03-15T17:35:43.361Z,0.47
2019-03-15T17:38:13.807Z,0.60
2019-03-15T17:40:44.199Z,0.53
2019-03-15T17:43:14.616Z,0.50
2019-03-15T17:45:44.965Z,0.73
2019-03-15T17:48:15.377Z,0.50
2019-03-15T17:50:45.865Z,0.50
2019-03-15T17:53:19.182Z,0.50
2019-03-15T17:55:49.560Z,1.30
2019-03-15T17:58:19.943Z,1.60
2019-03-15T18:00:50.627Z,0.40
2019-03-15T18:03:23.128Z,0.30
2019-03-15T18:05:53.476Z,0.70
2019-03-15T18:08:23.842Z,0.40
2019-03-15T18:10:54.520Z,0.80
2019-03-15T18:13:25.010Z,0.40
2019-03-15T18:15:55.393Z,0.50
2019-03-15T18:18:25.797Z,0.50
2019-03-15T18:20:56.191Z,0.50
2019-03-15T18:23:26.557Z,0.98
2019-03-15T18:25:56.926Z,0.45
2019-03-15T18:28:27.310Z,0.50
2019-03-15T18:30:59.167Z,0.85
2019-03-15T18:33:29.949Z,0.62
2019-03-15T18:36:00.333Z,0.60
2019-03-15T18:38:30.686Z,1.30
2019-03-15T18:41:01.073Z,0.60
2019-03-15T18:43:31.438Z,0.70
2019-03-15T18:46:04.837Z,0.70
2019-03-15T18:48:36.557Z,0.40
2019-03-15T18:51:06.981Z,0.40
2019-03-15T18:53:37.353Z,0.70
2019-03-15T18:56:07.724Z,0.50
2019-03-15T18:58:38.085Z,0.47
2019-03-15T19:01:08.490Z,0.50
2019-03-15T19:03:38.882Z,0.72
2019-03-15T19:06:09.270Z,0.53
2019-03-15T19:08:39.793Z,0.73
2019-03-15T19:11:10.197Z,0.50
2019-03-15T19:13:40.564Z,0.50
2019-03-15T19:16:20.063Z,0.60
2019-03-15T19:18:43.061Z,0.60
2019-03-15T19:21:15.940Z,0.50
2019-03-15T19:23:46.410Z,0.72
2019-03-15T19:26:16.822Z,1.05
2019-03-15T19:28:47.298Z,0.60
2019-03-15T19:31:17.727Z,1.10
2019-03-15T19:33:48.133Z,1.22
2019-03-15T19:36:18.562Z,0.45
2019-03-15T19:38:49.055Z,0.65
2019-03-15T19:41:19.514Z,0.65
2019-03-15T19:43:49.966Z,0.50
2019-03-15T19:46:20.381Z,0.50
2019-03-15T19:48:50.845Z,0.60
2019-03-15T19:51:21.446Z,0.50
2019-03-15T19:53:51.847Z,0.50
2019-03-15T19:56:22.365Z,1.60
2019-03-15T19:58:52.821Z,0.72
2019-03-15T20:01:23.201Z,1.02
2019-03-15T20:03:53.618Z,0.40
2019-03-15T20:06:24.064Z,0.40
2019-03-15T20:08:54.555Z,0.53
2019-03-15T20:11:24.944Z,0.70
2019-03-15T20:13:55.370Z,0.50
2019-03-15T20:16:25.890Z,0.50
2019-03-15T20:18:56.350Z,1.17
2019-03-15T20:21:26.860Z,0.60
2019-03-15T20:23:57.323Z,0.70
2019-03-15T20:26:29.682Z,0.50
2019-03-15T20:29:00.123Z,0.60
2019-03-15T20:31:30.546Z,0.62
2019-03-15T20:34:00.946Z,0.62
2019-03-15T20:36:31.340Z,0.85
2019-03-15T20:39:01.791Z,0.70
2019-03-15T20:41:32.296Z,0.50
2019-03-15T20:44:02.796Z,0.50
2019-03-15T20:46:36.068Z,0.50
2019-03-15T20:49:05.414Z,0.98
2019-03-15T20:51:35.895Z,0.55
2019-03-15T20:54:06.382Z,0.50
2019-03-15T20:56:36.787Z,0.70
2019-03-15T20:59:08.754Z,0.50
2019-03-15T21:01:39.193Z,0.60
2019-03-15T21:04:09.606Z,0.50
2019-03-15T21:06:40.027Z,0.60
2019-03-15T21:09:10.429Z,0.60
2019-03-15T21:11:43.684Z,0.55
2019-03-15T21:14:14.081Z,0.60
2019-03-15T21:16:44.567Z,0.50
2019-03-15T21:19:15.025Z,0.50
2019-03-15T21:21:45.510Z,0.60
2019-03-15T21:24:16.294Z,0.50
2019-03-15T21:26:46.701Z,3.15
2019-03-15T21:29:17.179Z,0.60
2019-03-15T21:31:47.599Z,0.50
2019-03-15T21:34:18.383Z,0.50
2019-03-15T21:36:48.840Z,0.60
2019-03-15T21:39:19.262Z,0.53
2019-03-15T21:41:49.805Z,0.98
2019-03-15T21:44:20.258Z,0.50
2019-03-15T21:46:50.743Z,0.70
2019-03-15T21:49:21.196Z,0.75
2019-03-15T21:51:51.638Z,0.90
2019-03-15T21:54:22.086Z,2.42
2019-03-15T21:56:52.499Z,0.50
2019-03-15T21:59:22.857Z,0.47
2019-03-15T22:01:53.314Z,0.50
2019-03-15T22:04:23.721Z,0.40
2019-03-15T22:06:54.202Z,21.15
2019-03-15T22:09:24.602Z,0.40
2019-03-15T22:11:55.039Z,0.57
2019-03-15T22:14:25.463Z,0.65
2019-03-15T22:16:55.871Z,1.20
2019-03-15T22:19:26.248Z,0.40
2019-03-15T22:21:56.685Z,0.40
2019-03-15T22:24:27.081Z,0.40
2019-03-15T22:26:57.502Z,0.40
2019-03-15T22:29:27.926Z,0.60
2019-03-15T22:31:58.295Z,0.40
2019-03-15T22:34:28.699Z,0.40
2019-03-15T22:36:59.111Z,0.40
2019-03-15T22:39:30.480Z,0.40
2019-03-15T22:42:00.901Z,1.60
2019-03-15T22:44:31.413Z,0.42
2019-03-15T22:47:04.287Z,0.40
2019-03-15T22:49:34.749Z,0.40
2019-03-15T22:52:05.181Z,0.40
2019-03-15T22:54:35.635Z,0.50
2019-03-15T22:57:06.043Z,0.40
2019-03-15T22:59:36.460Z,0.35
2019-03-15T23:02:07.275Z,0.30
2019-03-15T23:04:37.667Z,0.40
2019-03-15T23:07:08.067Z,0.40
2019-03-15T23:09:38.479Z,0.60
2019-03-15T23:12:08.925Z,0.40
2019-03-15T23:14:39.333Z,0.40
2019-03-15T23:17:09.765Z,0.42
2019-03-15T23:19:40.185Z,0.40
2019-03-15T23:22:10.742Z,0.40
2019-03-15T23:24:41.203Z,0.40
2019-03-15T23:27:11.850Z,0.40
2019-03-15T23:29:42.290Z,0.40
2019-03-15T23:32:12.695Z,0.93
2019-03-15T23:34:43.078Z,0.40
2019-03-15T23:37:13.506Z,0.40
2019-03-15T23:39:43.887Z,0.65
2019-03-15T23:42:14.365Z,0.40
2019-03-15T23:44:44.787Z,0.88
2019-03-15T23:47:15.167Z,0.50
2019-03-15T23:49:45.562Z,0.40
2019-03-15T23:52:16.022Z,2.15
2019-03-15T23:54:46.400Z,0.85
2019-03-15T23:57:16.827Z,0.50
2019-03-15T23:59:47.248Z,0.62
